Terminal Aerodrome Forecast
Issued by NWS

Home | Current Version | Previous Version | Graphics & Text | Print | Product List | Glossary On
Versions: 1 2 3 4 5 6 7 8 9 10 11 12 13 14 15
570
FTUS43 KFGF 212320
TAFBJI
TAF
KBJI 212320Z 2200/2224 18010G17KT P6SM VCTS OVC200CB
      TEMPO 2201/2203 VRB25G35KT +TSRA BKN090CB
     FM220300 22009KT P6SM VCTS BKN150CB
     FM220500 26007KT P6SM FEW130
     FM222000 25011KT P6SM SCT200=

USA.gov is the U.S. government's official web portal to all federal, state and local government web resources and services.